Zonguldak, Zonguldak Airport (LTAS)

NameZonguldak Airport
CityZonguldak
CountryTurkey
ICAOLTAS
IATAONQ
Altitude13 m
CoordinatesGoogle Map
Live Air TrafficLiveATC.net
METARLTAS 211250Z 33010KT 9999 SCT030 BKN100 09/07 Q1017
2019-01-21 12:50:00 Wind: Northwest (330°) 5.14 m/s - Visibility: > 10000 m - Temperature: 9 °C - Dew point: 7 °C - Humidity: 87.4% - Pressure: 1017 hPa

Sorry, no flights used the airport in this database.